sensor_id;sensor_type;location;lat;lon;timestamp;P1;P2;P0
45871;PMS5003;32333;55.844;-3.210;2023-04-03T00:01:49;0;0;
45871;PMS5003;32333;55.844;-3.210;2023-04-03T00:04:17;0;0;
45871;PMS5003;32333;55.844;-3.210;2023-04-03T00:06:44;0;0;
45871;PMS5003;32333;55.844;-3.210;2023-04-03T00:09:13;0;0;
45871;PMS5003;32333;55.844;-3.210;2023-04-03T00:11:40;0;0;
45871;PMS5003;32333;55.844;-3.210;2023-04-03T00:14:34;0;0;
45871;PMS5003;32333;55.844;-3.210;2023-04-03T00:17:02;0;0;
45871;PMS5003;32333;55.844;-3.210;2023-04-03T00:19:30;0;0;
45871;PMS5003;32333;55.844;-3.210;2023-04-03T00:21:58;0;0;
45871;PMS5003;32333;55.844;-3.210;2023-04-03T00:24:25;0;0;
45871;PMS5003;32333;55.844;-3.210;2023-04-03T00:26:53;0;0;
45871;PMS5003;32333;55.844;-3.210;2023-04-03T00:29:21;0;0;
45871;PMS5003;32333;55.844;-3.210;2023-04-03T00:31:48;0;0;
45871;PMS5003;32333;55.844;-3.210;2023-04-03T00:34:16;0;0;
45871;PMS5003;32333;55.844;-3.210;2023-04-03T00:36:44;0;0;
45871;PMS5003;32333;55.844;-3.210;2023-04-03T00:39:12;1;1;
45871;PMS5003;32333;55.844;-3.210;2023-04-03T00:41:39;0;0;
45871;PMS5003;32333;55.844;-3.210;2023-04-03T00:45:25;0;0;
45871;PMS5003;32333;55.844;-3.210;2023-04-03T00:47:56;0;0;
45871;PMS5003;32333;55.844;-3.210;2023-04-03T00:50:24;13;13;
45871;PMS5003;32333;55.844;-3.210;2023-04-03T00:52:53;19;19;
45871;PMS5003;32333;55.844;-3.210;2023-04-03T00:55:20;19;19;
45871;PMS5003;32333;55.844;-3.210;2023-04-03T00:57:49;0;0;
45871;PMS5003;32333;55.844;-3.210;2023-04-03T01:00:18;3;3;
45871;PMS5003;32333;55.844;-3.210;2023-04-03T01:02:48;1;1;
45871;PMS5003;32333;55.844;-3.210;2023-04-03T01:05:17;0;0;
45871;PMS5003;32333;55.844;-3.210;2023-04-03T01:07:45;0;0;
45871;PMS5003;32333;55.844;-3.210;2023-04-03T01:10:14;0;0;
45871;PMS5003;32333;55.844;-3.210;2023-04-03T01:14:35;0;0;
45871;PMS5003;32333;55.844;-3.210;2023-04-03T01:17:03;0;0;
45871;PMS5003;32333;55.844;-3.210;2023-04-03T01:19:30;0;0;
45871;PMS5003;32333;55.844;-3.210;2023-04-03T01:22:02;0;0;
45871;PMS5003;32333;55.844;-3.210;2023-04-03T01:24:43;0;0;
45871;PMS5003;32333;55.844;-3.210;2023-04-03T01:27:11;0;0;
45871;PMS5003;32333;55.844;-3.210;2023-04-03T01:29:38;0;0;
45871;PMS5003;32333;55.844;-3.210;2023-04-03T01:32:08;0;0;
45871;PMS5003;32333;55.844;-3.210;2023-04-03T01:34:36;0;0;
45871;PMS5003;32333;55.844;-3.210;2023-04-03T01:37:03;0;0;
45871;PMS5003;32333;55.844;-3.210;2023-04-03T01:39:32;0;0;
45871;PMS5003;32333;55.844;-3.210;2023-04-03T01:41:59;0;0;
45871;PMS5003;32333;55.844;-3.210;2023-04-03T01:44:35;0;0;
45871;PMS5003;32333;55.844;-3.210;2023-04-03T01:47:04;0;0;
45871;PMS5003;32333;55.844;-3.210;2023-04-03T01:49:33;1;1;
45871;PMS5003;32333;55.844;-3.210;2023-04-03T01:52:00;1;1;
45871;PMS5003;32333;55.844;-3.210;2023-04-03T01:54:28;9;9;
45871;PMS5003;32333;55.844;-3.210;2023-04-03T01:56:56;7;7;
45871;PMS5003;32333;55.844;-3.210;2023-04-03T01:59:24;0;0;
45871;PMS5003;32333;55.844;-3.210;2023-04-03T02:01:52;0;0;
45871;PMS5003;32333;55.844;-3.210;2023-04-03T02:04:19;0;0;
45871;PMS5003;32333;55.844;-3.210;2023-04-03T02:06:47;0;0;
45871;PMS5003;32333;55.844;-3.210;2023-04-03T02:09:14;1;0;
45871;PMS5003;32333;55.844;-3.210;2023-04-03T02:11:42;0;0;
45871;PMS5003;32333;55.844;-3.210;2023-04-03T02:14:35;0;0;
45871;PMS5003;32333;55.844;-3.210;2023-04-03T02:17:03;0;0;
45871;PMS5003;32333;55.844;-3.210;2023-04-03T02:19:30;0;0;
45871;PMS5003;32333;55.844;-3.210;2023-04-03T02:21:58;0;0;
45871;PMS5003;32333;55.844;-3.210;2023-04-03T02:24:26;0;0;
45871;PMS5003;32333;55.844;-3.210;2023-04-03T02:26:54;0;0;
45871;PMS5003;32333;55.844;-3.210;2023-04-03T02:29:21;0;0;
45871;PMS5003;32333;55.844;-3.210;2023-04-03T02:31:48;0;0;
45871;PMS5003;32333;55.844;-3.210;2023-04-03T02:34:16;0;0;
45871;PMS5003;32333;55.844;-3.210;2023-04-03T02:36:44;0;0;
45871;PMS5003;32333;55.844;-3.210;2023-04-03T02:39:11;0;0;
45871;PMS5003;32333;55.844;-3.210;2023-04-03T02:41:40;0;0;
45871;PMS5003;32333;55.844;-3.210;2023-04-03T02:44:35;0;0;
45871;PMS5003;32333;55.844;-3.210;2023-04-03T02:47:03;0;0;
45871;PMS5003;32333;55.844;-3.210;2023-04-03T02:49:31;0;0;
45871;PMS5003;32333;55.844;-3.210;2023-04-03T02:51:59;0;0;
45871;PMS5003;32333;55.844;-3.210;2023-04-03T02:54:27;0;0;
45871;PMS5003;32333;55.844;-3.210;2023-04-03T02:56:54;0;0;
45871;PMS5003;32333;55.844;-3.210;2023-04-03T02:59:22;4;4;
45871;PMS5003;32333;55.844;-3.210;2023-04-03T03:01:50;12;12;
45871;PMS5003;32333;55.844;-3.210;2023-04-03T03:04:17;12;12;
45871;PMS5003;32333;55.844;-3.210;2023-04-03T03:06:45;9;9;
45871;PMS5003;32333;55.844;-3.210;2023-04-03T03:09:14;10;10;
45871;PMS5003;32333;55.844;-3.210;2023-04-03T03:11:41;13;13;
45871;PMS5003;32333;55.844;-3.210;2023-04-03T03:14:35;7;7;
45871;PMS5003;32333;55.844;-3.210;2023-04-03T03:17:03;10;10;
45871;PMS5003;32333;55.844;-3.210;2023-04-03T03:19:31;10;10;
45871;PMS5003;32333;55.844;-3.210;2023-04-03T03:22:00;16;16;
45871;PMS5003;32333;55.844;-3.210;2023-04-03T03:24:28;45;45;
45871;PMS5003;32333;55.844;-3.210;2023-04-03T03:26:55;45;45;
45871;PMS5003;32333;55.844;-3.210;2023-04-03T03:29:22;45;45;
45871;PMS5003;32333;55.844;-3.210;2023-04-03T03:31:49;13;13;
45871;PMS5003;32333;55.844;-3.210;2023-04-03T03:34:19;51;51;
45871;PMS5003;32333;55.844;-3.210;2023-04-03T03:36:47;43;43;
45871;PMS5003;32333;55.844;-3.210;2023-04-03T03:39:14;15;15;
45871;PMS5003;32333;55.844;-3.210;2023-04-03T03:41:42;21;21;
45871;PMS5003;32333;55.844;-3.210;2023-04-03T03:44:34;45;45;
45871;PMS5003;32333;55.844;-3.210;2023-04-03T03:47:02;37;37;
45871;PMS5003;32333;55.844;-3.210;2023-04-03T03:49:29;13;13;
45871;PMS5003;32333;55.844;-3.210;2023-04-03T03:51:56;21;21;
45871;PMS5003;32333;55.844;-3.210;2023-04-03T03:54:23;22;22;
45871;PMS5003;32333;55.844;-3.210;2023-04-03T03:56:51;28;28;
45871;PMS5003;32333;55.844;-3.210;2023-04-03T03:59:18;24;24;
45871;PMS5003;32333;55.844;-3.210;2023-04-03T04:01:45;45;45;
45871;PMS5003;32333;55.844;-3.210;2023-04-03T04:04:13;25;25;
45871;PMS5003;32333;55.844;-3.210;2023-04-03T04:06:41;39;39;
45871;PMS5003;32333;55.844;-3.210;2023-04-03T04:09:08;30;30;
45871;PMS5003;32333;55.844;-3.210;2023-04-03T04:11:36;18;18;
45871;PMS5003;32333;55.844;-3.210;2023-04-03T04:14:34;22;22;
45871;PMS5003;32333;55.844;-3.210;2023-04-03T04:17:02;28;28;
45871;PMS5003;32333;55.844;-3.210;2023-04-03T04:19:29;30;30;
45871;PMS5003;32333;55.844;-3.210;2023-04-03T04:21:56;30;30;
45871;PMS5003;32333;55.844;-3.210;2023-04-03T04:24:25;18;18;
45871;PMS5003;32333;55.844;-3.210;2023-04-03T04:26:52;34;34;
45871;PMS5003;32333;55.844;-3.210;2023-04-03T04:29:20;19;19;
45871;PMS5003;32333;55.844;-3.210;2023-04-03T04:31:47;45;45;
45871;PMS5003;32333;55.844;-3.210;2023-04-03T04:34:15;24;24;
45871;PMS5003;32333;55.844;-3.210;2023-04-03T04:36:43;33;33;
45871;PMS5003;32333;55.844;-3.210;2023-04-03T04:39:11;25;25;
45871;PMS5003;32333;55.844;-3.210;2023-04-03T04:41:38;54;54;
45871;PMS5003;32333;55.844;-3.210;2023-04-03T04:44:33;57;57;
45871;PMS5003;32333;55.844;-3.210;2023-04-03T04:47:01;4;4;
45871;PMS5003;32333;55.844;-3.210;2023-04-03T04:49:29;0;0;
45871;PMS5003;32333;55.844;-3.210;2023-04-03T04:51:56;0;0;
45871;PMS5003;32333;55.844;-3.210;2023-04-03T04:54:25;0;0;
45871;PMS5003;32333;55.844;-3.210;2023-04-03T04:56:52;0;0;
45871;PMS5003;32333;55.844;-3.210;2023-04-03T04:59:20;0;0;
45871;PMS5003;32333;55.844;-3.210;2023-04-03T05:01:48;0;0;
45871;PMS5003;32333;55.844;-3.210;2023-04-03T05:04:16;0;0;
45871;PMS5003;32333;55.844;-3.210;2023-04-03T05:06:43;0;0;
45871;PMS5003;32333;55.844;-3.210;2023-04-03T05:09:11;0;0;
45871;PMS5003;32333;55.844;-3.210;2023-04-03T05:11:38;0;0;
45871;PMS5003;32333;55.844;-3.210;2023-04-03T05:14:36;0;0;
45871;PMS5003;32333;55.844;-3.210;2023-04-03T05:17:03;0;0;
45871;PMS5003;32333;55.844;-3.210;2023-04-03T05:19:31;0;0;
45871;PMS5003;32333;55.844;-3.210;2023-04-03T05:21:59;0;0;
45871;PMS5003;32333;55.844;-3.210;2023-04-03T05:24:27;0;0;
45871;PMS5003;32333;55.844;-3.210;2023-04-03T05:26:55;0;0;
45871;PMS5003;32333;55.844;-3.210;2023-04-03T05:29:22;1;1;
45871;PMS5003;32333;55.844;-3.210;2023-04-03T05:31:50;0;0;
45871;PMS5003;32333;55.844;-3.210;2023-04-03T05:34:18;0;0;
45871;PMS5003;32333;55.844;-3.210;2023-04-03T05:36:45;0;0;
45871;PMS5003;32333;55.844;-3.210;2023-04-03T05:39:14;0;0;
45871;PMS5003;32333;55.844;-3.210;2023-04-03T05:41:42;0;0;
45871;PMS5003;32333;55.844;-3.210;2023-04-03T05:44:35;0;0;
45871;PMS5003;32333;55.844;-3.210;2023-04-03T05:47:03;0;0;
45871;PMS5003;32333;55.844;-3.210;2023-04-03T05:49:31;0;0;
45871;PMS5003;32333;55.844;-3.210;2023-04-03T05:52:00;0;0;
45871;PMS5003;32333;55.844;-3.210;2023-04-03T05:54:28;0;0;
45871;PMS5003;32333;55.844;-3.210;2023-04-03T05:56:56;0;0;
45871;PMS5003;32333;55.844;-3.210;2023-04-03T05:59:24;0;0;
45871;PMS5003;32333;55.844;-3.210;2023-04-03T06:01:52;0;0;
45871;PMS5003;32333;55.844;-3.210;2023-04-03T06:04:20;0;0;
45871;PMS5003;32333;55.844;-3.210;2023-04-03T06:06:51;0;0;
45871;PMS5003;32333;55.844;-3.210;2023-04-03T06:09:20;0;0;
45871;PMS5003;32333;55.844;-3.210;2023-04-03T06:11:50;0;0;
45871;PMS5003;32333;55.844;-3.210;2023-04-03T06:14:34;0;0;
45871;PMS5003;32333;55.844;-3.210;2023-04-03T06:17:02;0;0;
45871;PMS5003;32333;55.844;-3.210;2023-04-03T06:19:30;0;0;
45871;PMS5003;32333;55.844;-3.210;2023-04-03T06:21:57;0;0;
45871;PMS5003;32333;55.844;-3.210;2023-04-03T06:24:25;4;4;
45871;PMS5003;32333;55.844;-3.210;2023-04-03T06:26:52;0;0;
45871;PMS5003;32333;55.844;-3.210;2023-04-03T06:29:20;0;0;
45871;PMS5003;32333;55.844;-3.210;2023-04-03T06:31:48;0;0;
45871;PMS5003;32333;55.844;-3.210;2023-04-03T06:34:16;0;0;
45871;PMS5003;32333;55.844;-3.210;2023-04-03T06:36:44;0;0;
45871;PMS5003;32333;55.844;-3.210;2023-04-03T06:39:12;0;0;
45871;PMS5003;32333;55.844;-3.210;2023-04-03T06:41:41;24;24;
45871;PMS5003;32333;55.844;-3.210;2023-04-03T06:44:35;12;12;
45871;PMS5003;32333;55.844;-3.210;2023-04-03T06:47:02;0;0;
45871;PMS5003;32333;55.844;-3.210;2023-04-03T06:49:30;0;0;
45871;PMS5003;32333;55.844;-3.210;2023-04-03T06:51:59;46;46;
45871;PMS5003;32333;55.844;-3.210;2023-04-03T06:54:26;1;1;
45871;PMS5003;32333;55.844;-3.210;2023-04-03T06:56:54;0;0;
45871;PMS5003;32333;55.844;-3.210;2023-04-03T06:59:21;0;0;
45871;PMS5003;32333;55.844;-3.210;2023-04-03T07:01:49;0;0;
45871;PMS5003;32333;55.844;-3.210;2023-04-03T07:04:16;0;0;
45871;PMS5003;32333;55.844;-3.210;2023-04-03T07:06:44;0;0;
45871;PMS5003;32333;55.844;-3.210;2023-04-03T07:09:14;0;0;
45871;PMS5003;32333;55.844;-3.210;2023-04-03T07:11:41;0;0;
45871;PMS5003;32333;55.844;-3.210;2023-04-03T07:14:35;0;0;
45871;PMS5003;32333;55.844;-3.210;2023-04-03T07:17:02;0;0;
45871;PMS5003;32333;55.844;-3.210;2023-04-03T07:19:30;0;0;
45871;PMS5003;32333;55.844;-3.210;2023-04-03T07:21:57;0;0;
45871;PMS5003;32333;55.844;-3.210;2023-04-03T07:24:25;0;0;
45871;PMS5003;32333;55.844;-3.210;2023-04-03T07:26:53;0;0;
45871;PMS5003;32333;55.844;-3.210;2023-04-03T07:29:20;0;0;
45871;PMS5003;32333;55.844;-3.210;2023-04-03T07:31:48;0;0;
45871;PMS5003;32333;55.844;-3.210;2023-04-03T07:34:16;0;0;
45871;PMS5003;32333;55.844;-3.210;2023-04-03T07:36:43;0;0;
45871;PMS5003;32333;55.844;-3.210;2023-04-03T07:39:11;1;1;
45871;PMS5003;32333;55.844;-3.210;2023-04-03T07:41:38;0;0;
45871;PMS5003;32333;55.844;-3.210;2023-04-03T07:44:35;0;0;
45871;PMS5003;32333;55.844;-3.210;2023-04-03T07:47:02;0;0;
45871;PMS5003;32333;55.844;-3.210;2023-04-03T07:49:30;0;0;
45871;PMS5003;32333;55.844;-3.210;2023-04-03T07:51:58;0;0;
45871;PMS5003;32333;55.844;-3.210;2023-04-03T07:54:26;0;0;
45871;PMS5003;32333;55.844;-3.210;2023-04-03T07:56:53;0;0;
45871;PMS5003;32333;55.844;-3.210;2023-04-03T07:59:21;0;0;
45871;PMS5003;32333;55.844;-3.210;2023-04-03T08:01:48;0;0;
45871;PMS5003;32333;55.844;-3.210;2023-04-03T08:04:15;1;1;
45871;PMS5003;32333;55.844;-3.210;2023-04-03T08:06:43;0;0;
45871;PMS5003;32333;55.844;-3.210;2023-04-03T08:09:10;0;0;
45871;PMS5003;32333;55.844;-3.210;2023-04-03T08:11:38;0;0;
45871;PMS5003;32333;55.844;-3.210;2023-04-03T08:14:35;0;0;
45871;PMS5003;32333;55.844;-3.210;2023-04-03T08:17:02;0;0;
45871;PMS5003;32333;55.844;-3.210;2023-04-03T08:19:29;3;3;
45871;PMS5003;32333;55.844;-3.210;2023-04-03T08:21:58;0;0;
45871;PMS5003;32333;55.844;-3.210;2023-04-03T08:24:26;0;0;
45871;PMS5003;32333;55.844;-3.210;2023-04-03T08:26:53;0;0;
45871;PMS5003;32333;55.844;-3.210;2023-04-03T08:29:21;0;0;
45871;PMS5003;32333;55.844;-3.210;2023-04-03T08:31:48;0;0;
45871;PMS5003;32333;55.844;-3.210;2023-04-03T08:34:16;0;0;
45871;PMS5003;32333;55.844;-3.210;2023-04-03T08:36:44;0;0;
45871;PMS5003;32333;55.844;-3.210;2023-04-03T08:39:12;0;0;
45871;PMS5003;32333;55.844;-3.210;2023-04-03T08:41:41;0;0;
45871;PMS5003;32333;55.844;-3.210;2023-04-03T08:44:37;0;0;
45871;PMS5003;32333;55.844;-3.210;2023-04-03T08:47:11;0;0;
45871;PMS5003;32333;55.844;-3.210;2023-04-03T08:49:48;0;0;
45871;PMS5003;32333;55.844;-3.210;2023-04-03T08:52:20;0;0;
45871;PMS5003;32333;55.844;-3.210;2023-04-03T08:54:54;0;0;
45871;PMS5003;32333;55.844;-3.210;2023-04-03T08:57:27;0;0;
45871;PMS5003;32333;55.844;-3.210;2023-04-03T08:59:57;0;0;
45871;PMS5003;32333;55.844;-3.210;2023-04-03T09:02:28;0;0;
45871;PMS5003;32333;55.844;-3.210;2023-04-03T09:05:01;0;0;
45871;PMS5003;32333;55.844;-3.210;2023-04-03T09:07:36;0;0;
45871;PMS5003;32333;55.844;-3.210;2023-04-03T09:10:09;0;0;
45871;PMS5003;32333;55.844;-3.210;2023-04-03T09:14:36;0;0;
45871;PMS5003;32333;55.844;-3.210;2023-04-03T09:17:12;0;0;
45871;PMS5003;32333;55.844;-3.210;2023-04-03T09:19:47;0;0;
45871;PMS5003;32333;55.844;-3.210;2023-04-03T09:22:20;0;0;
45871;PMS5003;32333;55.844;-3.210;2023-04-03T09:24:54;0;0;
45871;PMS5003;32333;55.844;-3.210;2023-04-03T09:27:27;0;0;
45871;PMS5003;32333;55.844;-3.210;2023-04-03T09:29:55;0;0;
45871;PMS5003;32333;55.844;-3.210;2023-04-03T09:32:27;0;0;
45871;PMS5003;32333;55.844;-3.210;2023-04-03T09:34:57;0;0;
45871;PMS5003;32333;55.844;-3.210;2023-04-03T09:37:38;1;0;
45871;PMS5003;32333;55.844;-3.210;2023-04-03T09:40:28;0;0;
45871;PMS5003;32333;55.844;-3.210;2023-04-03T09:44:35;0;0;
45871;PMS5003;32333;55.844;-3.210;2023-04-03T09:47:17;0;0;
45871;PMS5003;32333;55.844;-3.210;2023-04-03T09:49:49;0;0;
45871;PMS5003;32333;55.844;-3.210;2023-04-03T09:52:19;0;0;
45871;PMS5003;32333;55.844;-3.210;2023-04-03T09:54:51;0;0;
45871;PMS5003;32333;55.844;-3.210;2023-04-03T09:57:19;0;0;
45871;PMS5003;32333;55.844;-3.210;2023-04-03T09:59:47;0;0;
45871;PMS5003;32333;55.844;-3.210;2023-04-03T10:02:32;0;0;
45871;PMS5003;32333;55.844;-3.210;2023-04-03T10:05:02;0;0;
45871;PMS5003;32333;55.844;-3.210;2023-04-03T10:07:33;0;0;
45871;PMS5003;32333;55.844;-3.210;2023-04-03T10:10:10;0;0;
45871;PMS5003;32333;55.844;-3.210;2023-04-03T10:14:35;0;0;
45871;PMS5003;32333;55.844;-3.210;2023-04-03T10:17:15;0;0;
45871;PMS5003;32333;55.844;-3.210;2023-04-03T10:19:46;0;0;
45871;PMS5003;32333;55.844;-3.210;2023-04-03T10:22:20;0;0;
45871;PMS5003;32333;55.844;-3.210;2023-04-03T10:24:59;0;0;
45871;PMS5003;32333;55.844;-3.210;2023-04-03T10:27:33;0;0;
45871;PMS5003;32333;55.844;-3.210;2023-04-03T10:30:17;0;0;
45871;PMS5003;32333;55.844;-3.210;2023-04-03T10:32:55;0;0;
45871;PMS5003;32333;55.844;-3.210;2023-04-03T10:35:34;0;0;
45871;PMS5003;32333;55.844;-3.210;2023-04-03T10:38:13;0;0;
45871;PMS5003;32333;55.844;-3.210;2023-04-03T10:40:48;0;0;
45871;PMS5003;32333;55.844;-3.210;2023-04-03T10:44:37;0;0;
45871;PMS5003;32333;55.844;-3.210;2023-04-03T10:47:15;0;0;
45871;PMS5003;32333;55.844;-3.210;2023-04-03T10:49:50;1;0;
45871;PMS5003;32333;55.844;-3.210;2023-04-03T10:52:29;0;0;
45871;PMS5003;32333;55.844;-3.210;2023-04-03T10:55:06;0;0;
45871;PMS5003;32333;55.844;-3.210;2023-04-03T10:57:49;0;0;
45871;PMS5003;32333;55.844;-3.210;2023-04-03T11:00:21;0;0;
45871;PMS5003;32333;55.844;-3.210;2023-04-03T11:02:54;0;0;
45871;PMS5003;32333;55.844;-3.210;2023-04-03T11:05:26;0;0;
45871;PMS5003;32333;55.844;-3.210;2023-04-03T11:07:59;0;0;
45871;PMS5003;32333;55.844;-3.210;2023-04-03T11:10:35;0;0;
45871;PMS5003;32333;55.844;-3.210;2023-04-03T11:14:35;0;0;
45871;PMS5003;32333;55.844;-3.210;2023-04-03T11:17:08;0;0;
45871;PMS5003;32333;55.844;-3.210;2023-04-03T11:19:47;1;0;
45871;PMS5003;32333;55.844;-3.210;2023-04-03T11:22:22;0;0;
45871;PMS5003;32333;55.844;-3.210;2023-04-03T11:24:57;1;0;
45871;PMS5003;32333;55.844;-3.210;2023-04-03T11:27:30;0;0;
45871;PMS5003;32333;55.844;-3.210;2023-04-03T11:30:05;0;0;
45871;PMS5003;32333;55.844;-3.210;2023-04-03T11:32:44;1;1;
45871;PMS5003;32333;55.844;-3.210;2023-04-03T11:35:23;0;0;
45871;PMS5003;32333;55.844;-3.210;2023-04-03T11:37:54;0;0;
45871;PMS5003;32333;55.844;-3.210;2023-04-03T11:40:24;0;0;
45871;PMS5003;32333;55.844;-3.210;2023-04-03T11:44:35;0;0;
45871;PMS5003;32333;55.844;-3.210;2023-04-03T11:47:04;0;0;
45871;PMS5003;32333;55.844;-3.210;2023-04-03T11:50:05;0;0;
45871;PMS5003;32333;55.844;-3.210;2023-04-03T11:53:43;0;0;
45871;PMS5003;32333;55.844;-3.210;2023-04-03T11:56:28;0;0;
45871;PMS5003;32333;55.844;-3.210;2023-04-03T11:59:29;0;0;
45871;PMS5003;32333;55.844;-3.210;2023-04-03T12:02:13;0;0;
45871;PMS5003;32333;55.844;-3.210;2023-04-03T12:05:34;0;0;
45871;PMS5003;32333;55.844;-3.210;2023-04-03T12:08:27;0;0;
45871;PMS5003;32333;55.844;-3.210;2023-04-03T12:11:21;0;0;
45871;PMS5003;32333;55.844;-3.210;2023-04-03T12:14:41;0;0;
45871;PMS5003;32333;55.844;-3.210;2023-04-03T12:17:11;0;0;
45871;PMS5003;32333;55.844;-3.210;2023-04-03T12:19:48;0;0;
45871;PMS5003;32333;55.844;-3.210;2023-04-03T12:22:17;0;0;
45871;PMS5003;32333;55.844;-3.210;2023-04-03T12:24:46;0;0;
45871;PMS5003;32333;55.844;-3.210;2023-04-03T12:27:19;0;0;
45871;PMS5003;32333;55.844;-3.210;2023-04-03T12:29:52;0;0;
45871;PMS5003;32333;55.844;-3.210;2023-04-03T12:32:34;0;0;
45871;PMS5003;32333;55.844;-3.210;2023-04-03T12:35:12;0;0;
45871;PMS5003;32333;55.844;-3.210;2023-04-03T12:37:51;0;0;
45871;PMS5003;32333;55.844;-3.210;2023-04-03T12:40:43;1;1;
45871;PMS5003;32333;55.844;-3.210;2023-04-03T12:44:38;0;0;
45871;PMS5003;32333;55.844;-3.210;2023-04-03T12:47:19;0;0;
45871;PMS5003;32333;55.844;-3.210;2023-04-03T12:49:51;0;0;
45871;PMS5003;32333;55.844;-3.210;2023-04-03T12:52:22;0;0;
45871;PMS5003;32333;55.844;-3.210;2023-04-03T12:55:00;0;0;
45871;PMS5003;32333;55.844;-3.210;2023-04-03T12:57:28;0;0;
45871;PMS5003;32333;55.844;-3.210;2023-04-03T12:59:55;0;0;
45871;PMS5003;32333;55.844;-3.210;2023-04-03T13:02:24;0;0;
45871;PMS5003;32333;55.844;-3.210;2023-04-03T13:04:54;0;0;
45871;PMS5003;32333;55.844;-3.210;2023-04-03T13:07:25;0;0;
45871;PMS5003;32333;55.844;-3.210;2023-04-03T13:09:56;0;0;
45871;PMS5003;32333;55.844;-3.210;2023-04-03T13:14:35;0;0;
45871;PMS5003;32333;55.844;-3.210;2023-04-03T13:17:03;1;0;
45871;PMS5003;32333;55.844;-3.210;2023-04-03T13:19:36;0;0;
45871;PMS5003;32333;55.844;-3.210;2023-04-03T13:22:04;1;1;
45871;PMS5003;32333;55.844;-3.210;2023-04-03T13:24:35;1;1;
45871;PMS5003;32333;55.844;-3.210;2023-04-03T13:27:04;0;0;
45871;PMS5003;32333;55.844;-3.210;2023-04-03T13:29:33;0;0;
45871;PMS5003;32333;55.844;-3.210;2023-04-03T13:32:04;0;0;
45871;PMS5003;32333;55.844;-3.210;2023-04-03T13:34:36;0;0;
45871;PMS5003;32333;55.844;-3.210;2023-04-03T13:37:06;0;0;
45871;PMS5003;32333;55.844;-3.210;2023-04-03T13:39:45;3;0;
45871;PMS5003;32333;55.844;-3.210;2023-04-03T13:44:36;0;0;
45871;PMS5003;32333;55.844;-3.210;2023-04-03T13:47:16;0;0;
45871;PMS5003;32333;55.844;-3.210;2023-04-03T13:49:46;0;0;
45871;PMS5003;32333;55.844;-3.210;2023-04-03T13:52:29;6;6;
45871;PMS5003;32333;55.844;-3.210;2023-04-03T13:54:59;0;0;
45871;PMS5003;32333;55.844;-3.210;2023-04-03T13:57:48;1;1;
45871;PMS5003;32333;55.844;-3.210;2023-04-03T14:00:22;0;0;
45871;PMS5003;32333;55.844;-3.210;2023-04-03T14:02:57;0;0;
45871;PMS5003;32333;55.844;-3.210;2023-04-03T14:05:25;0;0;
45871;PMS5003;32333;55.844;-3.210;2023-04-03T14:07:54;0;0;
45871;PMS5003;32333;55.844;-3.210;2023-04-03T14:10:22;0;0;
45871;PMS5003;32333;55.844;-3.210;2023-04-03T14:14:35;0;0;
45871;PMS5003;32333;55.844;-3.210;2023-04-03T14:17:10;0;0;
45871;PMS5003;32333;55.844;-3.210;2023-04-03T14:19:41;0;0;
45871;PMS5003;32333;55.844;-3.210;2023-04-03T14:22:13;0;0;
45871;PMS5003;32333;55.844;-3.210;2023-04-03T14:24:43;0;0;
45871;PMS5003;32333;55.844;-3.210;2023-04-03T14:27:13;0;0;
45871;PMS5003;32333;55.844;-3.210;2023-04-03T14:29:43;1;0;
45871;PMS5003;32333;55.844;-3.210;2023-04-03T14:32:12;0;0;
45871;PMS5003;32333;55.844;-3.210;2023-04-03T14:34:41;0;0;
45871;PMS5003;32333;55.844;-3.210;2023-04-03T14:37:11;0;0;
45871;PMS5003;32333;55.844;-3.210;2023-04-03T14:39:40;0;0;
45871;PMS5003;32333;55.844;-3.210;2023-04-03T14:44:35;0;0;
45871;PMS5003;32333;55.844;-3.210;2023-04-03T14:47:02;0;0;
45871;PMS5003;32333;55.844;-3.210;2023-04-03T14:49:30;0;0;
45871;PMS5003;32333;55.844;-3.210;2023-04-03T14:51:59;0;0;
45871;PMS5003;32333;55.844;-3.210;2023-04-03T14:54:27;1;0;
45871;PMS5003;32333;55.844;-3.210;2023-04-03T14:56:54;0;0;
45871;PMS5003;32333;55.844;-3.210;2023-04-03T14:59:25;0;0;
45871;PMS5003;32333;55.844;-3.210;2023-04-03T15:01:53;0;0;
45871;PMS5003;32333;55.844;-3.210;2023-04-03T15:04:21;0;0;
45871;PMS5003;32333;55.844;-3.210;2023-04-03T15:06:48;0;0;
45871;PMS5003;32333;55.844;-3.210;2023-04-03T15:09:19;0;0;
45871;PMS5003;32333;55.844;-3.210;2023-04-03T15:11:48;0;0;
45871;PMS5003;32333;55.844;-3.210;2023-04-03T15:14:35;0;0;
45871;PMS5003;32333;55.844;-3.210;2023-04-03T15:17:03;0;0;
45871;PMS5003;32333;55.844;-3.210;2023-04-03T15:19:32;0;0;
45871;PMS5003;32333;55.844;-3.210;2023-04-03T15:22:04;0;0;
45871;PMS5003;32333;55.844;-3.210;2023-04-03T15:24:33;0;0;
45871;PMS5003;32333;55.844;-3.210;2023-04-03T15:27:00;0;0;
45871;PMS5003;32333;55.844;-3.210;2023-04-03T15:29:28;0;0;
45871;PMS5003;32333;55.844;-3.210;2023-04-03T15:31:57;0;0;
45871;PMS5003;32333;55.844;-3.210;2023-04-03T15:34:24;0;0;
45871;PMS5003;32333;55.844;-3.210;2023-04-03T15:36:52;0;0;
45871;PMS5003;32333;55.844;-3.210;2023-04-03T15:39:19;1;1;
45871;PMS5003;32333;55.844;-3.210;2023-04-03T15:41:46;0;0;
45871;PMS5003;32333;55.844;-3.210;2023-04-03T15:44:35;1;0;
45871;PMS5003;32333;55.844;-3.210;2023-04-03T15:47:02;1;1;
45871;PMS5003;32333;55.844;-3.210;2023-04-03T15:49:31;0;0;
45871;PMS5003;32333;55.844;-3.210;2023-04-03T15:52:00;0;0;
45871;PMS5003;32333;55.844;-3.210;2023-04-03T15:54:29;0;0;
45871;PMS5003;32333;55.844;-3.210;2023-04-03T15:56:58;0;0;
45871;PMS5003;32333;55.844;-3.210;2023-04-03T15:59:25;0;0;
45871;PMS5003;32333;55.844;-3.210;2023-04-03T16:01:52;0;0;
45871;PMS5003;32333;55.844;-3.210;2023-04-03T16:04:20;0;0;
45871;PMS5003;32333;55.844;-3.210;2023-04-03T16:06:48;0;0;
45871;PMS5003;32333;55.844;-3.210;2023-04-03T16:09:16;0;0;
45871;PMS5003;32333;55.844;-3.210;2023-04-03T16:11:45;0;0;
45871;PMS5003;32333;55.844;-3.210;2023-04-03T16:14:35;1;1;
45871;PMS5003;32333;55.844;-3.210;2023-04-03T16:17:02;0;0;
45871;PMS5003;32333;55.844;-3.210;2023-04-03T16:19:29;0;0;
45871;PMS5003;32333;55.844;-3.210;2023-04-03T16:21:58;1;1;
45871;PMS5003;32333;55.844;-3.210;2023-04-03T16:24:26;0;0;
45871;PMS5003;32333;55.844;-3.210;2023-04-03T16:26:53;0;0;
45871;PMS5003;32333;55.844;-3.210;2023-04-03T16:29:20;0;0;
45871;PMS5003;32333;55.844;-3.210;2023-04-03T16:31:47;0;0;
45871;PMS5003;32333;55.844;-3.210;2023-04-03T16:34:14;0;0;
45871;PMS5003;32333;55.844;-3.210;2023-04-03T16:36:42;1;1;
45871;PMS5003;32333;55.844;-3.210;2023-04-03T16:39:09;0;0;
45871;PMS5003;32333;55.844;-3.210;2023-04-03T16:41:36;0;0;
45871;PMS5003;32333;55.844;-3.210;2023-04-03T16:44:35;0;0;
45871;PMS5003;32333;55.844;-3.210;2023-04-03T16:47:03;0;0;
45871;PMS5003;32333;55.844;-3.210;2023-04-03T16:49:30;0;0;
45871;PMS5003;32333;55.844;-3.210;2023-04-03T16:51:59;0;0;
45871;PMS5003;32333;55.844;-3.210;2023-04-03T16:54:27;0;0;
45871;PMS5003;32333;55.844;-3.210;2023-04-03T16:56:55;1;1;
45871;PMS5003;32333;55.844;-3.210;2023-04-03T16:59:23;3;1;
45871;PMS5003;32333;55.844;-3.210;2023-04-03T17:01:51;1;0;
45871;PMS5003;32333;55.844;-3.210;2023-04-03T17:04:18;3;3;
45871;PMS5003;32333;55.844;-3.210;2023-04-03T17:06:47;3;3;
45871;PMS5003;32333;55.844;-3.210;2023-04-03T17:09:14;0;0;
45871;PMS5003;32333;55.844;-3.210;2023-04-03T17:11:41;0;0;
45871;PMS5003;32333;55.844;-3.210;2023-04-03T17:14:35;0;0;
45871;PMS5003;32333;55.844;-3.210;2023-04-03T17:17:02;0;0;
45871;PMS5003;32333;55.844;-3.210;2023-04-03T17:19:30;1;1;
45871;PMS5003;32333;55.844;-3.210;2023-04-03T17:21:59;0;0;
45871;PMS5003;32333;55.844;-3.210;2023-04-03T17:24:27;0;0;